sensor_id;sensor_type;location;lat;lon;timestamp;pressure;altitude;pressure_sealevel;temperature;humidity
77153;BME280;66124;51.146;17.072;2023-08-08T00:01:35;99788.98;;;14.55;68.57
77153;BME280;66124;51.146;17.072;2023-08-08T00:04:05;99793.19;;;14.55;68.61
77153;BME280;66124;51.146;17.072;2023-08-08T00:06:34;99794.55;;;14.57;68.60
77153;BME280;66124;51.146;17.072;2023-08-08T00:09:04;99792.02;;;14.57;68.68
77153;BME280;66124;51.146;17.072;2023-08-08T00:11:33;99798.20;;;14.58;68.45
77153;BME280;66124;51.146;17.072;2023-08-08T00:14:02;99801.37;;;14.59;68.35
77153;BME280;66124;51.146;17.072;2023-08-08T00:16:32;99803.20;;;14.61;68.47
77153;BME280;66124;51.146;17.072;2023-08-08T00:28:48;99803.23;;;14.76;68.20
77153;BME280;66124;51.146;17.072;2023-08-08T00:31:18;99800.88;;;14.75;68.02
77153;BME280;66124;51.146;17.072;2023-08-08T00:33:48;99802.17;;;14.76;67.86
77153;BME280;66124;51.146;17.072;2023-08-08T00:36:17;99802.70;;;14.78;67.92
77153;BME280;66124;51.146;17.072;2023-08-08T00:38:46;99804.45;;;14.79;67.99
77153;BME280;66124;51.146;17.072;2023-08-08T00:41:16;99812.12;;;14.80;67.70
77153;BME280;66124;51.146;17.072;2023-08-08T00:43:46;99808.52;;;14.80;67.62
77153;BME280;66124;51.146;17.072;2023-08-08T00:46:15;99810.02;;;14.81;67.72
77153;BME280;66124;51.146;17.072;2023-08-08T00:48:45;99814.47;;;14.82;67.55
77153;BME280;66124;51.146;17.072;2023-08-08T00:51:15;99814.95;;;14.82;67.42
77153;BME280;66124;51.146;17.072;2023-08-08T00:53:45;99818.44;;;14.81;67.20
77153;BME280;66124;51.146;17.072;2023-08-08T00:56:16;99819.83;;;14.80;67.09
77153;BME280;66124;51.146;17.072;2023-08-08T00:58:46;99819.31;;;14.79;66.96
77153;BME280;66124;51.146;17.072;2023-08-08T01:01:16;99820.99;;;14.78;67.06
77153;BME280;66124;51.146;17.072;2023-08-08T01:03:46;99818.55;;;14.77;66.86
77153;BME280;66124;51.146;17.072;2023-08-08T01:06:22;99821.67;;;14.75;66.87
77153;BME280;66124;51.146;17.072;2023-08-08T01:08:57;99821.86;;;14.72;67.05
77153;BME280;66124;51.146;17.072;2023-08-08T01:11:28;99824.63;;;14.69;67.06
77153;BME280;66124;51.146;17.072;2023-08-08T01:14:00;99820.80;;;14.66;66.95
77153;BME280;66124;51.146;17.072;2023-08-08T01:16:31;99825.85;;;14.60;67.00
77153;BME280;66124;51.146;17.072;2023-08-08T01:19:00;99825.11;;;14.56;67.10
77153;BME280;66124;51.146;17.072;2023-08-08T01:21:31;99825.30;;;14.51;67.10
77153;BME280;66124;51.146;17.072;2023-08-08T01:24:12;99824.85;;;14.46;67.20
77153;BME280;66124;51.146;17.072;2023-08-08T01:26:41;99818.07;;;14.40;67.33
77153;BME280;66124;51.146;17.072;2023-08-08T01:29:11;99820.27;;;14.34;67.33
77153;BME280;66124;51.146;17.072;2023-08-08T01:31:40;99813.46;;;14.24;67.45
77153;BME280;66124;51.146;17.072;2023-08-08T01:34:10;99820.70;;;14.25;67.70
77153;BME280;66124;51.146;17.072;2023-08-08T01:36:45;99824.77;;;14.21;67.69
77153;BME280;66124;51.146;17.072;2023-08-08T01:39:16;99825.60;;;14.17;67.80
77153;BME280;66124;51.146;17.072;2023-08-08T01:41:45;99818.33;;;14.13;67.88
77153;BME280;66124;51.146;17.072;2023-08-08T01:46:26;99811.85;;;14.07;68.13
77153;BME280;66124;51.146;17.072;2023-08-08T01:48:58;99806.67;;;14.01;68.18
77153;BME280;66124;51.146;17.072;2023-08-08T01:51:28;99804.13;;;13.97;68.18
77153;BME280;66124;51.146;17.072;2023-08-08T01:53:58;99806.17;;;13.92;68.30
77153;BME280;66124;51.146;17.072;2023-08-08T01:56:27;99805.71;;;13.88;68.24
77153;BME280;66124;51.146;17.072;2023-08-08T01:58:56;99808.41;;;13.84;68.44
77153;BME280;66124;51.146;17.072;2023-08-08T02:01:26;99809.86;;;13.80;68.66
77153;BME280;66124;51.146;17.072;2023-08-08T02:03:55;99813.14;;;13.76;68.64
77153;BME280;66124;51.146;17.072;2023-08-08T02:06:25;99810.38;;;13.72;68.73
77153;BME280;66124;51.146;17.072;2023-08-08T02:08:55;99805.18;;;13.69;68.90
77153;BME280;66124;51.146;17.072;2023-08-08T02:11:25;99804.30;;;13.64;68.90
77153;BME280;66124;51.146;17.072;2023-08-08T02:13:54;99811.32;;;13.60;69.04
77153;BME280;66124;51.146;17.072;2023-08-08T02:16:24;99812.10;;;13.56;69.12
77153;BME280;66124;51.146;17.072;2023-08-08T02:18:53;99813.27;;;13.53;68.96
77153;BME280;66124;51.146;17.072;2023-08-08T02:21:22;99817.83;;;13.50;69.15
77153;BME280;66124;51.146;17.072;2023-08-08T02:23:52;99819.95;;;13.48;69.08
77153;BME280;66124;51.146;17.072;2023-08-08T02:26:21;99821.95;;;13.46;69.36
77153;BME280;66124;51.146;17.072;2023-08-08T02:28:51;99818.73;;;13.44;69.43
77153;BME280;66124;51.146;17.072;2023-08-08T02:31:20;99815.77;;;13.41;69.55
77153;BME280;66124;51.146;17.072;2023-08-08T02:33:50;99817.30;;;13.38;69.56
77153;BME280;66124;51.146;17.072;2023-08-08T02:36:20;99816.36;;;13.34;69.60
77153;BME280;66124;51.146;17.072;2023-08-08T02:38:49;99816.52;;;13.31;69.40
77153;BME280;66124;51.146;17.072;2023-08-08T02:41:19;99815.95;;;13.29;69.52
77153;BME280;66124;51.146;17.072;2023-08-08T02:43:48;99819.34;;;13.27;69.68
77153;BME280;66124;51.146;17.072;2023-08-08T02:46:18;99822.28;;;13.27;69.60
77153;BME280;66124;51.146;17.072;2023-08-08T02:48:47;99822.53;;;13.25;69.78
77153;BME280;66124;51.146;17.072;2023-08-08T02:51:17;99822.94;;;13.23;69.76
77153;BME280;66124;51.146;17.072;2023-08-08T02:53:46;99825.58;;;13.22;69.72
77153;BME280;66124;51.146;17.072;2023-08-08T02:56:15;99825.42;;;13.19;69.72
77153;BME280;66124;51.146;17.072;2023-08-08T02:58:45;99829.70;;;13.17;69.77
77153;BME280;66124;51.146;17.072;2023-08-08T03:06:22;99832.27;;;13.17;69.84
77153;BME280;66124;51.146;17.072;2023-08-08T03:08:51;99834.02;;;13.13;69.83
77153;BME280;66124;51.146;17.072;2023-08-08T03:11:21;99838.35;;;13.11;70.13
77153;BME280;66124;51.146;17.072;2023-08-08T03:13:50;99841.29;;;13.09;70.13
77153;BME280;66124;51.146;17.072;2023-08-08T03:16:20;99846.75;;;13.08;69.82
77153;BME280;66124;51.146;17.072;2023-08-08T03:18:50;99844.67;;;13.06;70.00
77153;BME280;66124;51.146;17.072;2023-08-08T03:21:20;99840.27;;;13.04;70.00
77153;BME280;66124;51.146;17.072;2023-08-08T03:23:49;99846.83;;;13.03;70.07
77153;BME280;66124;51.146;17.072;2023-08-08T03:26:19;99849.45;;;13.00;70.13
77153;BME280;66124;51.146;17.072;2023-08-08T03:28:48;99849.33;;;12.99;70.17
77153;BME280;66124;51.146;17.072;2023-08-08T03:31:17;99854.45;;;12.98;70.08
77153;BME280;66124;51.146;17.072;2023-08-08T03:33:47;99856.80;;;12.96;70.25
77153;BME280;66124;51.146;17.072;2023-08-08T03:36:16;99849.71;;;12.95;70.28
77153;BME280;66124;51.146;17.072;2023-08-08T03:38:46;99856.48;;;12.93;70.06
77153;BME280;66124;51.146;17.072;2023-08-08T03:41:15;99858.23;;;12.92;70.11
77153;BME280;66124;51.146;17.072;2023-08-08T03:43:45;99863.04;;;12.90;70.15
77153;BME280;66124;51.146;17.072;2023-08-08T03:46:14;99861.60;;;12.89;70.23
77153;BME280;66124;51.146;17.072;2023-08-08T03:48:43;99869.51;;;12.89;70.12
77153;BME280;66124;51.146;17.072;2023-08-08T03:51:13;99873.58;;;12.89;70.05
77153;BME280;66124;51.146;17.072;2023-08-08T03:53:42;99875.14;;;12.89;70.10
77153;BME280;66124;51.146;17.072;2023-08-08T03:56:11;99876.80;;;12.90;70.34
77153;BME280;66124;51.146;17.072;2023-08-08T03:58:41;99879.81;;;12.91;70.04
77153;BME280;66124;51.146;17.072;2023-08-08T04:01:10;99882.41;;;12.93;70.01
77153;BME280;66124;51.146;17.072;2023-08-08T04:03:40;99884.13;;;12.95;70.27
77153;BME280;66124;51.146;17.072;2023-08-08T04:06:09;99886.77;;;12.96;69.74
77153;BME280;66124;51.146;17.072;2023-08-08T04:08:38;99884.46;;;12.99;69.82
77153;BME280;66124;51.146;17.072;2023-08-08T04:11:08;99885.52;;;13.01;69.76
77153;BME280;66124;51.146;17.072;2023-08-08T04:13:37;99892.96;;;13.04;69.97
77153;BME280;66124;51.146;17.072;2023-08-08T04:16:06;99895.44;;;13.06;69.99
77153;BME280;66124;51.146;17.072;2023-08-08T04:18:34;99895.08;;;13.08;70.10
77153;BME280;66124;51.146;17.072;2023-08-08T04:26:11;99898.33;;;13.21;69.65
77153;BME280;66124;51.146;17.072;2023-08-08T04:28:41;99900.02;;;13.24;69.73
77153;BME280;66124;51.146;17.072;2023-08-08T04:31:10;99905.30;;;13.27;69.84
77153;BME280;66124;51.146;17.072;2023-08-08T04:33:40;99910.23;;;13.32;69.47
77153;BME280;66124;51.146;17.072;2023-08-08T04:36:09;99911.05;;;13.36;69.56
77153;BME280;66124;51.146;17.072;2023-08-08T04:38:40;99912.66;;;13.41;69.40
77153;BME280;66124;51.146;17.072;2023-08-08T04:41:09;99913.15;;;13.47;69.18
77153;BME280;66124;51.146;17.072;2023-08-08T04:43:38;99910.58;;;13.53;69.03
77153;BME280;66124;51.146;17.072;2023-08-08T04:46:08;99917.55;;;13.59;68.85
77153;BME280;66124;51.146;17.072;2023-08-08T04:48:37;99913.05;;;13.66;68.85
77153;BME280;66124;51.146;17.072;2023-08-08T04:51:07;99921.72;;;13.72;68.62
77153;BME280;66124;51.146;17.072;2023-08-08T04:53:37;99921.91;;;13.78;68.32
77153;BME280;66124;51.146;17.072;2023-08-08T04:56:07;99923.33;;;13.83;68.18
77153;BME280;66124;51.146;17.072;2023-08-08T04:58:36;99927.46;;;13.91;68.13
77153;BME280;66124;51.146;17.072;2023-08-08T05:01:05;99929.73;;;13.98;67.98
77153;BME280;66124;51.146;17.072;2023-08-08T05:03:35;99928.31;;;14.06;67.74
77153;BME280;66124;51.146;17.072;2023-08-08T05:06:04;99930.18;;;14.11;67.63
77153;BME280;66124;51.146;17.072;2023-08-08T05:08:34;99934.24;;;14.13;67.38
77153;BME280;66124;51.146;17.072;2023-08-08T05:11:04;99940.38;;;14.15;67.34
77153;BME280;66124;51.146;17.072;2023-08-08T05:13:33;99939.47;;;14.17;67.26
77153;BME280;66124;51.146;17.072;2023-08-08T05:16:02;99943.16;;;14.20;67.15
77153;BME280;66124;51.146;17.072;2023-08-08T05:18:32;99943.23;;;14.31;67.01
77153;BME280;66124;51.146;17.072;2023-08-08T05:21:01;99947.63;;;14.44;66.81
77153;BME280;66124;51.146;17.072;2023-08-08T05:23:31;99946.25;;;14.51;66.43
77153;BME280;66124;51.146;17.072;2023-08-08T05:26:00;99944.33;;;14.55;66.15
77153;BME280;66124;51.146;17.072;2023-08-08T05:28:29;99951.35;;;14.59;66.21
77153;BME280;66124;51.146;17.072;2023-08-08T05:30:59;99953.95;;;14.62;65.99
77153;BME280;66124;51.146;17.072;2023-08-08T05:33:28;99956.33;;;14.63;65.63
77153;BME280;66124;51.146;17.072;2023-08-08T05:35:57;99958.98;;;14.61;65.74
77153;BME280;66124;51.146;17.072;2023-08-08T05:38:25;99957.73;;;14.59;65.60
77153;BME280;66124;51.146;17.072;2023-08-08T05:46:04;99950.27;;;14.58;65.65
77153;BME280;66124;51.146;17.072;2023-08-08T05:48:33;99956.42;;;14.60;65.63
77153;BME280;66124;51.146;17.072;2023-08-08T05:51:03;99957.37;;;14.64;65.75
77153;BME280;66124;51.146;17.072;2023-08-08T05:53:32;99957.45;;;14.73;65.78
77153;BME280;66124;51.146;17.072;2023-08-08T05:56:01;99953.40;;;14.83;65.68
77153;BME280;66124;51.146;17.072;2023-08-08T05:58:32;99952.69;;;14.90;65.29
77153;BME280;66124;51.146;17.072;2023-08-08T06:01:02;99953.73;;;14.99;65.34
77153;BME280;66124;51.146;17.072;2023-08-08T06:03:31;99960.27;;;15.07;65.27
77153;BME280;66124;51.146;17.072;2023-08-08T06:06:01;99963.83;;;15.13;65.19
77153;BME280;66124;51.146;17.072;2023-08-08T06:08:30;99964.00;;;15.18;64.67
77153;BME280;66124;51.146;17.072;2023-08-08T06:10:59;99960.32;;;15.19;64.24
77153;BME280;66124;51.146;17.072;2023-08-08T06:13:29;99957.63;;;15.21;64.15
77153;BME280;66124;51.146;17.072;2023-08-08T06:15:58;99955.39;;;15.27;63.91
77153;BME280;66124;51.146;17.072;2023-08-08T06:18:28;99954.59;;;15.35;63.74
77153;BME280;66124;51.146;17.072;2023-08-08T06:20:57;99948.20;;;15.46;63.71
77153;BME280;66124;51.146;17.072;2023-08-08T06:23:26;99936.36;;;15.48;63.61
77153;BME280;66124;51.146;17.072;2023-08-08T06:25:56;99954.02;;;15.70;63.43
77153;BME280;66124;51.146;17.072;2023-08-08T06:28:25;99948.83;;;15.84;62.93
77153;BME280;66124;51.146;17.072;2023-08-08T06:30:55;99948.61;;;15.97;62.47
77153;BME280;66124;51.146;17.072;2023-08-08T06:33:24;99951.83;;;16.04;62.51
77153;BME280;66124;51.146;17.072;2023-08-08T06:35:54;99951.19;;;16.16;61.99
77153;BME280;66124;51.146;17.072;2023-08-08T06:38:23;99948.98;;;16.18;61.19
77153;BME280;66124;51.146;17.072;2023-08-08T06:40:53;99951.96;;;16.16;61.48
77153;BME280;66124;51.146;17.072;2023-08-08T06:43:22;99955.80;;;16.13;61.46
77153;BME280;66124;51.146;17.072;2023-08-08T06:45:51;99954.41;;;16.13;60.45
77153;BME280;66124;51.146;17.072;2023-08-08T06:48:21;99951.11;;;16.11;59.95
77153;BME280;66124;51.146;17.072;2023-08-08T06:50:50;99946.99;;;16.10;59.42
77153;BME280;66124;51.146;17.072;2023-08-08T06:53:20;99940.24;;;16.13;59.10
77153;BME280;66124;51.146;17.072;2023-08-08T06:55:49;99946.00;;;16.15;59.20
77153;BME280;66124;51.146;17.072;2023-08-08T06:58:17;99939.88;;;16.17;57.80
77153;BME280;66124;51.146;17.072;2023-08-08T07:06:33;99941.26;;;16.38;57.07
77153;BME280;66124;51.146;17.072;2023-08-08T07:09:03;99943.55;;;16.44;56.88
77153;BME280;66124;51.146;17.072;2023-08-08T07:11:32;99935.83;;;16.50;56.51
77153;BME280;66124;51.146;17.072;2023-08-08T07:14:02;99937.45;;;16.56;56.15
77153;BME280;66124;51.146;17.072;2023-08-08T07:16:31;99930.71;;;16.60;55.57
77153;BME280;66124;51.146;17.072;2023-08-08T07:19:02;99933.70;;;16.63;55.01
77153;BME280;66124;51.146;17.072;2023-08-08T07:21:31;99933.73;;;16.64;54.39
77153;BME280;66124;51.146;17.072;2023-08-08T07:24:01;99930.11;;;16.65;54.21
77153;BME280;66124;51.146;17.072;2023-08-08T07:26:30;99927.34;;;16.65;53.49
77153;BME280;66124;51.146;17.072;2023-08-08T07:29:00;99926.80;;;16.65;52.96
77153;BME280;66124;51.146;17.072;2023-08-08T07:31:29;99925.64;;;16.63;52.47
77153;BME280;66124;51.146;17.072;2023-08-08T07:33:59;99926.45;;;16.64;52.67
77153;BME280;66124;51.146;17.072;2023-08-08T07:36:28;99932.57;;;16.66;52.47
77153;BME280;66124;51.146;17.072;2023-08-08T07:38:57;99939.06;;;16.67;52.95
77153;BME280;66124;51.146;17.072;2023-08-08T07:41:29;99939.42;;;16.67;52.92
77153;BME280;66124;51.146;17.072;2023-08-08T07:43:58;99941.80;;;16.68;52.90
77153;BME280;66124;51.146;17.072;2023-08-08T07:46:28;99938.13;;;16.66;51.87
77153;BME280;66124;51.146;17.072;2023-08-08T07:48:57;99942.27;;;16.64;51.85
77153;BME280;66124;51.146;17.072;2023-08-08T07:51:27;99945.49;;;16.65;51.91
77153;BME280;66124;51.146;17.072;2023-08-08T07:53:56;99947.55;;;16.66;51.72
77153;BME280;66124;51.146;17.072;2023-08-08T07:56:26;99945.61;;;16.67;51.45
77153;BME280;66124;51.146;17.072;2023-08-08T07:58:55;99935.52;;;16.62;51.10
77153;BME280;66124;51.146;17.072;2023-08-08T08:01:25;99944.10;;;16.79;51.06
77153;BME280;66124;51.146;17.072;2023-08-08T08:03:54;99942.42;;;16.92;51.07
77153;BME280;66124;51.146;17.072;2023-08-08T08:06:24;99939.41;;;17.11;50.20
77153;BME280;66124;51.146;17.072;2023-08-08T08:08:53;99941.02;;;17.31;49.56
77153;BME280;66124;51.146;17.072;2023-08-08T08:11:22;99941.96;;;17.46;49.60
77153;BME280;66124;51.146;17.072;2023-08-08T08:13:52;99941.94;;;17.62;49.87
77153;BME280;66124;51.146;17.072;2023-08-08T08:16:21;99929.82;;;17.78;49.09
77153;BME280;66124;51.146;17.072;2023-08-08T08:18:49;99929.19;;;17.90;48.39
77153;BME280;66124;51.146;17.072;2023-08-08T08:26:22;99923.92;;;18.36;47.37
77153;BME280;66124;51.146;17.072;2023-08-08T08:28:51;99924.63;;;18.47;46.80
77153;BME280;66124;51.146;17.072;2023-08-08T08:31:21;99911.77;;;18.50;46.49
77153;BME280;66124;51.146;17.072;2023-08-08T08:33:50;99918.88;;;18.53;46.89
77153;BME280;66124;51.146;17.072;2023-08-08T08:36:19;99927.25;;;18.55;47.14
77153;BME280;66124;51.146;17.072;2023-08-08T08:38:50;99933.88;;;18.56;47.39
77153;BME280;66124;51.146;17.072;2023-08-08T08:41:23;99917.79;;;18.44;47.66
77153;BME280;66124;51.146;17.072;2023-08-08T08:43:54;99922.03;;;18.45;48.17
77153;BME280;66124;51.146;17.072;2023-08-08T08:46:26;99929.02;;;18.50;48.40
77153;BME280;66124;51.146;17.072;2023-08-08T08:48:59;99927.83;;;18.51;48.14
77153;BME280;66124;51.146;17.072;2023-08-08T08:51:32;99927.25;;;18.49;48.19
77153;BME280;66124;51.146;17.072;2023-08-08T08:54:01;99928.57;;;18.49;48.18
77153;BME280;66124;51.146;17.072;2023-08-08T08:56:31;99931.19;;;18.51;48.45
77153;BME280;66124;51.146;17.072;2023-08-08T08:59:01;99927.04;;;18.61;48.16
77153;BME280;66124;51.146;17.072;2023-08-08T09:01:31;99927.83;;;18.71;47.28
77153;BME280;66124;51.146;17.072;2023-08-08T09:04:01;99926.14;;;18.75;46.80
77153;BME280;66124;51.146;17.072;2023-08-08T09:06:31;99927.33;;;18.73;46.61
77153;BME280;66124;51.146;17.072;2023-08-08T09:09:01;99925.77;;;18.70;46.34
77153;BME280;66124;51.146;17.072;2023-08-08T09:11:31;99929.59;;;18.66;46.26
77153;BME280;66124;51.146;17.072;2023-08-08T09:14:00;99923.85;;;18.67;46.19
77153;BME280;66124;51.146;17.072;2023-08-08T09:16:30;99926.95;;;18.73;46.06
77153;BME280;66124;51.146;17.072;2023-08-08T09:18:59;99925.07;;;18.84;46.44
77153;BME280;66124;51.146;17.072;2023-08-08T09:21:30;99906.05;;;18.86;46.09
77153;BME280;66124;51.146;17.072;2023-08-08T09:23:59;99926.07;;;19.05;45.76
77153;BME280;66124;51.146;17.072;2023-08-08T09:26:29;99924.72;;;19.07;45.60
77153;BME280;66124;51.146;17.072;2023-08-08T09:28:59;99928.16;;;19.08;45.58
77153;BME280;66124;51.146;17.072;2023-08-08T09:31:29;99934.14;;;19.11;45.74
77153;BME280;66124;51.146;17.072;2023-08-08T09:33:57;99931.31;;;19.21;45.76
77153;BME280;66124;51.146;17.072;2023-08-08T09:36:25;99932.17;;;19.31;45.23
77153;BME280;66124;51.146;17.072;2023-08-08T09:38:53;99932.17;;;19.30;44.82
77153;BME280;66124;51.146;17.072;2023-08-08T09:46:34;99936.30;;;19.25;44.46
77153;BME280;66124;51.146;17.072;2023-08-08T09:49:04;99935.16;;;19.17;44.49
77153;BME280;66124;51.146;17.072;2023-08-08T09:51:34;99930.77;;;19.14;44.60
77153;BME280;66124;51.146;17.072;2023-08-08T09:54:05;99936.04;;;19.15;44.49
77153;BME280;66124;51.146;17.072;2023-08-08T09:56:35;99929.02;;;19.17;44.43
77153;BME280;66124;51.146;17.072;2023-08-08T09:59:06;99931.80;;;19.18;44.73
77153;BME280;66124;51.146;17.072;2023-08-08T10:01:35;99939.16;;;19.23;45.01
77153;BME280;66124;51.146;17.072;2023-08-08T10:04:06;99930.52;;;19.24;44.67
77153;BME280;66124;51.146;17.072;2023-08-08T10:06:36;99930.36;;;19.18;44.55
77153;BME280;66124;51.146;17.072;2023-08-08T10:09:06;99922.36;;;19.16;44.33
77153;BME280;66124;51.146;17.072;2023-08-08T10:11:36;99929.71;;;19.15;44.94
77153;BME280;66124;51.146;17.072;2023-08-08T10:14:06;99934.49;;;19.18;45.18
77153;BME280;66124;51.146;17.072;2023-08-08T10:16:36;99930.17;;;19.23;45.12
77153;BME280;66124;51.146;17.072;2023-08-08T10:19:06;99930.70;;;19.25;44.98
77153;BME280;66124;51.146;17.072;2023-08-08T10:21:37;99927.29;;;19.26;44.96
77153;BME280;66124;51.146;17.072;2023-08-08T10:24:10;99932.07;;;19.31;44.86
77153;BME280;66124;51.146;17.072;2023-08-08T10:26:54;99927.56;;;19.30;44.27
77153;BME280;66124;51.146;17.072;2023-08-08T10:29:27;99934.42;;;19.24;43.91
77153;BME280;66124;51.146;17.072;2023-08-08T10:31:58;99933.29;;;19.21;44.32
77153;BME280;66124;51.146;17.072;2023-08-08T10:34:39;99931.73;;;19.20;44.01
77153;BME280;66124;51.146;17.072;2023-08-08T10:37:12;99933.00;;;19.20;44.19
77153;BME280;66124;51.146;17.072;2023-08-08T10:39:52;99931.33;;;19.21;44.03
77153;BME280;66124;51.146;17.072;2023-08-08T10:42:24;99929.99;;;19.18;43.73
77153;BME280;66124;51.146;17.072;2023-08-08T10:44:54;99933.70;;;19.18;44.20
77153;BME280;66124;51.146;17.072;2023-08-08T10:47:25;99926.89;;;19.25;44.08
77153;BME280;66124;51.146;17.072;2023-08-08T10:50:05;99923.67;;;19.31;44.30
77153;BME280;66124;51.146;17.072;2023-08-08T10:52:49;99918.98;;;19.40;44.22
77153;BME280;66124;51.146;17.072;2023-08-08T10:55:23;99915.65;;;19.37;43.79
77153;BME280;66124;51.146;17.072;2023-08-08T10:57:55;99923.36;;;19.25;43.86
77153;BME280;66124;51.146;17.072;2023-08-08T11:06:15;99924.08;;;18.97;44.75
77153;BME280;66124;51.146;17.072;2023-08-08T11:08:45;99922.94;;;18.87;44.64
77153;BME280;66124;51.146;17.072;2023-08-08T11:11:14;99922.54;;;18.86;45.12
77153;BME280;66124;51.146;17.072;2023-08-08T11:13:45;99913.77;;;18.98;44.90
77153;BME280;66124;51.146;17.072;2023-08-08T11:16:15;99917.14;;;19.04;45.21
77153;BME280;66124;51.146;17.072;2023-08-08T11:18:45;99909.39;;;19.12;45.24
77153;BME280;66124;51.146;17.072;2023-08-08T11:21:14;99909.30;;;19.22;45.30
77153;BME280;66124;51.146;17.072;2023-08-08T11:23:48;99905.62;;;19.35;44.95
77153;BME280;66124;51.146;17.072;2023-08-08T11:26:20;99903.85;;;19.47;44.56
77153;BME280;66124;51.146;17.072;2023-08-08T11:28:53;99911.90;;;19.60;44.49
77153;BME280;66124;51.146;17.072;2023-08-08T11:31:23;99907.06;;;19.82;44.42
77153;BME280;66124;51.146;17.072;2023-08-08T11:33:53;99907.11;;;20.13;44.35
77153;BME280;66124;51.146;17.072;2023-08-08T11:36:23;99909.88;;;20.46;43.52
77153;BME280;66124;51.146;17.072;2023-08-08T11:38:53;99908.45;;;20.67;42.91
77153;BME280;66124;51.146;17.072;2023-08-08T11:41:24;99904.35;;;20.80;42.80
77153;BME280;66124;51.146;17.072;2023-08-08T11:43:53;99903.95;;;21.05;42.30
77153;BME280;66124;51.146;17.072;2023-08-08T11:46:25;99905.05;;;21.12;42.22
77153;BME280;66124;51.146;17.072;2023-08-08T11:48:54;99904.55;;;21.18;42.49
77153;BME280;66124;51.146;17.072;2023-08-08T11:51:24;99903.59;;;21.12;42.24
77153;BME280;66124;51.146;17.072;2023-08-08T11:53:54;99900.06;;;21.02;42.59
77153;BME280;66124;51.146;17.072;2023-08-08T11:56:23;99904.27;;;21.20;42.34
77153;BME280;66124;51.146;17.072;2023-08-08T11:58:53;99881.56;;;21.30;42.38
77153;BME280;66124;51.146;17.072;2023-08-08T12:01:25;99898.28;;;21.73;41.80
77153;BME280;66124;51.146;17.072;2023-08-08T12:03:54;99894.19;;;21.95;40.96
77153;BME280;66124;51.146;17.072;2023-08-08T12:06:29;99881.84;;;22.07;41.14
77153;BME280;66124;51.146;17.072;2023-08-08T12:09:00;99892.90;;;22.53;40.99
77153;BME280;66124;51.146;17.072;2023-08-08T12:11:30;99890.46;;;22.90;40.47
77153;BME280;66124;51.146;17.072;2023-08-08T12:14:01;99887.34;;;22.97;39.62
77153;BME280;66124;51.146;17.072;2023-08-08T12:16:31;99890.89;;;22.64;39.38
77153;BME280;66124;51.146;17.072;2023-08-08T12:19:00;99894.21;;;22.43;39.84
77153;BME280;66124;51.146;17.072;2023-08-08T12:26:46;99890.03;;;21.92;40.94
77153;BME280;66124;51.146;17.072;2023-08-08T12:29:16;99888.20;;;21.91;41.14
77153;BME280;66124;51.146;17.072;2023-08-08T12:31:45;99887.98;;;21.82;40.95
77153;BME280;66124;51.146;17.072;2023-08-08T12:34:14;99895.64;;;21.81;41.07
77153;BME280;66124;51.146;17.072;2023-08-08T12:36:44;99895.81;;;21.72;41.09
77153;BME280;66124;51.146;17.072;2023-08-08T12:39:15;99897.80;;;21.56;41.33
77153;BME280;66124;51.146;17.072;2023-08-08T12:41:44;99895.20;;;21.36;41.24
77153;BME280;66124;51.146;17.072;2023-08-08T12:44:15;99894.77;;;21.21;41.49
77153;BME280;66124;51.146;17.072;2023-08-08T12:46:48;99897.42;;;21.06;41.89
77153;BME280;66124;51.146;17.072;2023-08-08T12:49:20;99899.34;;;21.01;42.11
77153;BME280;66124;51.146;17.072;2023-08-08T12:51:51;99893.77;;;20.95;42.04
77153;BME280;66124;51.146;17.072;2023-08-08T12:54:21;99892.90;;;20.89;41.93
77153;BME280;66124;51.146;17.072;2023-08-08T12:56:50;99892.38;;;20.85;41.75
77153;BME280;66124;51.146;17.072;2023-08-08T12:59:20;99889.60;;;20.84;41.70
77153;BME280;66124;51.146;17.072;2023-08-08T13:01:49;99893.97;;;20.94;41.68
77153;BME280;66124;51.146;17.072;2023-08-08T13:04:19;99890.07;;;21.09;41.63
77153;BME280;66124;51.146;17.072;2023-08-08T13:06:48;99894.55;;;21.20;41.87
77153;BME280;66124;51.146;17.072;2023-08-08T13:09:18;99893.40;;;21.33;41.67
77153;BME280;66124;51.146;17.072;2023-08-08T13:11:48;99894.49;;;21.36;41.55
77153;BME280;66124;51.146;17.072;2023-08-08T13:14:17;99892.70;;;21.32;41.49
77153;BME280;66124;51.146;17.072;2023-08-08T13:16:47;99886.34;;;21.27;41.84
77153;BME280;66124;51.146;17.072;2023-08-08T13:19:16;99890.34;;;21.25;41.76
77153;BME280;66124;51.146;17.072;2023-08-08T13:21:45;99889.09;;;21.38;41.89
77153;BME280;66124;51.146;17.072;2023-08-08T13:24:15;99882.45;;;21.73;41.70
77153;BME280;66124;51.146;17.072;2023-08-08T13:26:44;99886.36;;;22.26;41.49
77153;BME280;66124;51.146;17.072;2023-08-08T13:29:14;99880.45;;;22.90;40.55
77153;BME280;66124;51.146;17.072;2023-08-08T13:31:44;99870.40;;;23.36;40.32
77153;BME280;66124;51.146;17.072;2023-08-08T13:34:13;99874.80;;;23.69;40.19
77153;BME280;66124;51.146;17.072;2023-08-08T13:36:43;99875.69;;;23.82;39.35
77153;BME280;66124;51.146;17.072;2023-08-08T13:39:11;99874.48;;;23.51;38.89
77153;BME280;66124;51.146;17.072;2023-08-08T13:47:18;99877.91;;;22.58;40.10
77153;BME280;66124;51.146;17.072;2023-08-08T13:49:47;99877.42;;;22.36;40.33
77153;BME280;66124;51.146;17.072;2023-08-08T13:52:17;99881.67;;;22.17;40.58
77153;BME280;66124;51.146;17.072;2023-08-08T13:54:46;99869.80;;;21.92;40.69
77153;BME280;66124;51.146;17.072;2023-08-08T13:57:15;99869.94;;;21.80;40.81
77153;BME280;66124;51.146;17.072;2023-08-08T13:59:47;99866.62;;;21.74;41.01
77153;BME280;66124;51.146;17.072;2023-08-08T14:02:16;99866.96;;;21.71;41.16
77153;BME280;66124;51.146;17.072;2023-08-08T14:04:45;99868.48;;;21.64;41.14